createdAt,value
2023-03-06T00:00:55.020Z,100855.88
2023-03-06T00:03:23.315Z,100853.75
2023-03-06T00:05:51.200Z,100862.41
2023-03-06T00:08:19.192Z,100843.13
2023-03-06T00:10:47.053Z,100861.28
2023-03-06T00:13:18.967Z,100849.34
2023-03-06T00:15:49.547Z,100850.31
2023-03-06T00:18:17.557Z,100847.34
2023-03-06T00:20:46.375Z,100841.91
2023-03-06T00:23:14.298Z,100834.91
2023-03-06T00:25:43.670Z,100834.97
2023-03-06T00:28:14.657Z,100837.69
2023-03-06T00:30:42.968Z,100835.88
2023-03-06T00:33:12.407Z,100821.91
2023-03-06T00:35:40.518Z,100832.31
2023-03-06T00:38:08.839Z,100830.34
2023-03-06T00:40:36.648Z,100826.56
2023-03-06T00:43:04.479Z,100821.84
2023-03-06T00:45:32.550Z,100814.63
2023-03-06T00:48:00.421Z,100820.28
2023-03-06T00:50:29.880Z,100818.97
2023-03-06T00:52:57.664Z,100819.09
2023-03-06T00:55:26.017Z,100812.19
2023-03-06T00:57:53.945Z,100813.09
2023-03-06T01:00:22.146Z,100811.88
2023-03-06T01:02:51.268Z,100807.31
2023-03-06T01:05:19.199Z,100807.97
2023-03-06T01:07:48.458Z,100797.47
2023-03-06T01:10:16.326Z,100795.41
2023-03-06T01:12:44.198Z,100791.50
2023-03-06T01:15:14.260Z,100787.47
2023-03-06T01:17:42.563Z,100796.03
2023-03-06T01:20:15.033Z,100782.56
2023-03-06T01:22:43.541Z,100787.00
2023-03-06T01:25:13.225Z,100782.47
2023-03-06T01:27:41.312Z,100784.72
2023-03-06T01:30:12.999Z,100766.47
2023-03-06T01:32:40.952Z,100772.00
2023-03-06T01:35:09.547Z,100764.41
2023-03-06T01:37:38.083Z,100757.66
2023-03-06T01:40:07.783Z,100762.09
2023-03-06T01:42:37.032Z,100765.44
2023-03-06T01:45:29.761Z,100757.09
2023-03-06T01:47:57.715Z,100750.59
2023-03-06T01:50:25.915Z,100753.59
2023-03-06T01:52:57.415Z,100746.06
2023-03-06T01:55:28.794Z,100743.19
2023-03-06T01:58:01.754Z,100743.41
2023-03-06T02:00:31.053Z,100745.28
2023-03-06T02:03:06.927Z,100740.81
2023-03-06T02:05:38.055Z,100735.31
2023-03-06T02:08:07.662Z,100739.16
2023-03-06T02:10:35.787Z,100739.53
2023-03-06T02:13:05.320Z,100733.38
2023-03-06T02:15:33.290Z,100736.50
2023-03-06T02:18:01.913Z,100726.84
2023-03-06T02:20:39.443Z,100723.00
2023-03-06T02:23:15.838Z,100718.94
2023-03-06T02:25:47.171Z,100724.72
2023-03-06T02:28:17.013Z,100715.19
2023-03-06T02:30:47.192Z,100714.47
2023-03-06T02:33:17.897Z,100701.41
2023-03-06T02:35:50.951Z,100712.75
2023-03-06T02:38:21.855Z,100714.38
2023-03-06T02:40:52.917Z,100707.75
2023-03-06T02:43:24.052Z,100705.13
2023-03-06T02:45:52.885Z,100698.16
2023-03-06T02:48:21.497Z,100699.78
2023-03-06T02:50:49.638Z,100691.53
2023-03-06T02:53:20.043Z,100694.31
2023-03-06T02:55:48.821Z,100693.53
2023-03-06T02:58:20.613Z,100685.72
2023-03-06T03:00:49.942Z,100691.72
2023-03-06T03:03:19.097Z,100677.13
2023-03-06T03:05:47.207Z,100664.34
2023-03-06T03:08:25.295Z,100653.38
2023-03-06T03:10:57.612Z,100639.13
2023-03-06T03:13:30.068Z,100636.16
2023-03-06T03:16:02.789Z,100632.69
2023-03-06T03:18:30.838Z,100632.31
2023-03-06T03:20:59.308Z,100623.78
2023-03-06T03:23:27.552Z,100616.00
2023-03-06T03:26:07.309Z,100620.97
2023-03-06T03:28:38.341Z,100607.03
2023-03-06T03:31:07.955Z,100599.97
2023-03-06T03:33:36.521Z,100599.31
2023-03-06T03:36:07.028Z,100605.53
2023-03-06T03:38:37.725Z,100606.78
2023-03-06T03:41:06.619Z,100612.03
2023-03-06T03:43:34.972Z,100614.75
2023-03-06T03:46:04.355Z,100617.59
2023-03-06T03:48:32.423Z,100618.81
2023-03-06T03:51:06.132Z,100619.69
2023-03-06T03:53:36.920Z,100614.22
2023-03-06T03:56:06.436Z,100613.25
2023-03-06T03:58:38.730Z,100618.31
2023-03-06T04:01:08.350Z,100617.19
2023-03-06T04:03:37.725Z,100609.50
2023-03-06T04:06:08.004Z,100604.06
2023-03-06T04:08:36.755Z,100606.25
2023-03-06T04:11:05.168Z,100605.75
2023-03-06T04:13:33.614Z,100601.97
2023-03-06T04:16:02.096Z,100593.66
2023-03-06T04:18:33.603Z,100593.53
2023-03-06T04:21:05.545Z,100593.84
2023-03-06T04:23:33.855Z,100589.50
2023-03-06T04:26:01.692Z,100591.75
2023-03-06T04:28:29.730Z,100586.69
2023-03-06T04:30:58.977Z,100586.25
2023-03-06T04:33:27.842Z,100585.22
2023-03-06T04:35:57.649Z,100577.44
2023-03-06T04:38:29.532Z,100569.53
2023-03-06T04:40:57.658Z,100566.84
2023-03-06T04:43:25.748Z,100563.16
2023-03-06T04:45:53.595Z,100560.63
2023-03-06T04:48:21.590Z,100566.63
2023-03-06T04:50:49.388Z,100566.53
2023-03-06T04:53:21.608Z,100553.28
2023-03-06T04:55:49.458Z,100541.56
2023-03-06T04:58:17.414Z,100542.47
2023-03-06T05:00:45.300Z,100538.16
2023-03-06T05:03:14.310Z,100538.97
2023-03-06T05:05:42.670Z,100538.81
2023-03-06T05:08:13.985Z,100538.25
2023-03-06T05:10:43.731Z,100544.53
2023-03-06T05:13:11.749Z,100537.13
2023-03-06T05:15:42.178Z,100541.06
2023-03-06T05:18:10.089Z,100540.69
2023-03-06T05:20:38.038Z,100541.56
2023-03-06T05:23:05.929Z,100544.31
2023-03-06T05:25:33.861Z,100540.03
2023-03-06T05:28:03.103Z,100544.84
2023-03-06T05:30:31.143Z,100549.22
2023-03-06T05:32:58.978Z,100549.44
2023-03-06T05:35:26.920Z,100551.81
2023-03-06T05:37:55.038Z,100545.13
2023-03-06T05:40:23.154Z,100541.13
2023-03-06T05:42:51.079Z,100540.59
2023-03-06T05:45:20.475Z,100532.31
2023-03-06T05:47:48.420Z,100525.13
2023-03-06T05:50:16.328Z,100535.34
2023-03-06T05:52:44.262Z,100533.56
2023-03-06T05:55:13.451Z,100536.34
2023-03-06T05:57:41.433Z,100529.19
2023-03-06T06:00:10.648Z,100531.56
2023-03-06T06:02:43.808Z,100527.72
2023-03-06T06:05:13.141Z,100526.28
2023-03-06T06:07:41.706Z,100525.03
2023-03-06T06:10:11.987Z,100527.91
2023-03-06T06:12:40.254Z,100528.63
2023-03-06T06:15:09.166Z,100529.25
2023-03-06T06:17:37.258Z,100524.31
2023-03-06T06:20:07.482Z,100531.88
2023-03-06T06:22:37.990Z,100532.38
2023-03-06T06:25:09.660Z,100524.06
2023-03-06T06:27:38.318Z,100523.81
2023-03-06T06:30:07.898Z,100525.34
2023-03-06T06:32:37.320Z,100520.63
2023-03-06T06:35:07.622Z,100521.28
2023-03-06T06:37:38.983Z,100524.53
2023-03-06T06:40:08.270Z,100521.13
2023-03-06T06:42:39.808Z,100517.34
2023-03-06T06:45:09.712Z,100516.00
2023-03-06T06:47:40.938Z,100520.44
2023-03-06T06:50:16.061Z,100516.63
2023-03-06T06:52:44.398Z,100521.72
2023-03-06T06:55:13.910Z,100520.66
2023-03-06T06:57:43.274Z,100519.63
2023-03-06T07:00:15.089Z,100519.56
2023-03-06T07:02:42.955Z,100510.22
2023-03-06T07:05:12.784Z,100512.75
2023-03-06T07:07:40.597Z,100517.84
2023-03-06T07:10:13.730Z,100518.09
2023-03-06T07:12:42.160Z,100517.72
2023-03-06T07:15:13.164Z,100526.88
2023-03-06T07:17:41.233Z,100532.59
2023-03-06T07:20:10.967Z,100528.53
2023-03-06T07:22:50.433Z,100529.81
2023-03-06T07:25:20.003Z,100536.19
2023-03-06T07:27:53.332Z,100528.97
2023-03-06T07:30:22.244Z,100527.34
2023-03-06T07:32:53.360Z,100523.28
2023-03-06T07:35:21.541Z,100528.28
2023-03-06T07:37:51.490Z,100530.16
2023-03-06T07:40:20.800Z,100525.13
2023-03-06T07:42:48.806Z,100523.06
2023-03-06T07:45:20.610Z,100523.38
2023-03-06T07:47:50.533Z,100518.88
2023-03-06T07:50:18.706Z,100517.28
2023-03-06T07:52:46.999Z,100510.47
2023-03-06T07:55:16.496Z,100515.09
2023-03-06T07:57:44.391Z,100514.63
2023-03-06T08:00:14.900Z,100512.81
2023-03-06T08:02:44.077Z,100516.97
2023-03-06T08:05:15.333Z,100509.50
2023-03-06T08:07:43.754Z,100511.19
2023-03-06T08:10:15.463Z,100511.63
2023-03-06T08:12:45.372Z,100515.91
2023-03-06T08:15:14.243Z,100513.97
2023-03-06T08:17:42.805Z,100519.50
2023-03-06T08:20:12.768Z,100516.16
2023-03-06T08:22:41.116Z,100514.94
2023-03-06T08:25:10.210Z,100510.75
2023-03-06T08:27:39.034Z,100510.19
2023-03-06T08:30:12.179Z,100512.69
2023-03-06T08:32:40.485Z,100519.09
2023-03-06T08:35:11.048Z,100517.34
2023-03-06T08:37:39.205Z,100517.56
2023-03-06T08:40:09.116Z,100517.47
2023-03-06T08:42:37.444Z,100525.63
2023-03-06T08:45:06.922Z,100520.84
2023-03-06T08:47:37.896Z,100521.94
2023-03-06T08:50:07.006Z,100528.72
2023-03-06T08:52:35.040Z,100530.34
2023-03-06T08:55:04.239Z,100525.88
2023-03-06T08:57:33.070Z,100528.94
2023-03-06T09:00:01.382Z,100531.69
2023-03-06T09:02:29.937Z,100528.22
2023-03-06T09:05:06.060Z,100533.47
2023-03-06T09:07:34.808Z,100543.06
2023-03-06T09:10:03.188Z,100540.59
2023-03-06T09:12:37.389Z,100549.75
2023-03-06T09:15:16.443Z,100543.75
2023-03-06T09:17:45.090Z,100547.16
2023-03-06T09:20:17.689Z,100546.91
2023-03-06T09:22:46.602Z,100555.38
2023-03-06T09:25:20.481Z,100558.81
2023-03-06T09:28:05.213Z,100564.59
2023-03-06T09:30:38.660Z,100562.94
2023-03-06T09:33:06.988Z,100563.78
2023-03-06T09:35:36.865Z,100565.72
2023-03-06T09:38:05.151Z,100564.38
2023-03-06T09:40:47.675Z,100560.72
2023-03-06T09:43:25.439Z,100566.03
2023-03-06T09:45:56.624Z,100564.63
2023-03-06T09:48:36.852Z,100565.25
2023-03-06T09:51:15.249Z,100559.47
2023-03-06T09:53:59.096Z,100553.00
2023-03-06T09:56:35.556Z,100559.72
2023-03-06T09:59:13.467Z,100563.34
2023-03-06T10:01:45.766Z,100559.84
2023-03-06T10:04:32.655Z,100565.31
2023-03-06T10:07:09.033Z,100556.31
2023-03-06T10:09:43.451Z,100552.69
2023-03-06T10:12:24.782Z,100546.34
2023-03-06T10:15:15.124Z,100548.13
2023-03-06T10:17:44.584Z,100546.38
2023-03-06T10:20:22.172Z,100537.88
2023-03-06T10:23:22.477Z,100523.34
2023-03-06T10:25:58.768Z,100522.72
2023-03-06T10:28:31.126Z,100521.16
2023-03-06T10:31:05.034Z,100515.91
2023-03-06T10:33:45.837Z,100511.97
2023-03-06T10:36:17.689Z,100511.22
2023-03-06T10:38:48.840Z,100513.44
2023-03-06T10:41:26.572Z,100508.53
2023-03-06T10:44:21.891Z,100501.91
2023-03-06T10:46:53.027Z,100514.50
2023-03-06T10:49:30.411Z,100505.84
2023-03-06T10:52:02.141Z,100514.59
2023-03-06T10:54:36.372Z,100505.63
2023-03-06T10:57:26.512Z,100497.41
2023-03-06T10:59:57.629Z,100492.91
2023-03-06T11:02:31.606Z,100501.28
2023-03-06T11:05:03.367Z,100491.63
2023-03-06T11:07:32.535Z,100495.66
2023-03-06T11:10:17.331Z,100486.16
2023-03-06T11:12:57.497Z,100483.34
2023-03-06T11:15:26.570Z,100473.97
2023-03-06T11:18:02.905Z,100464.69
2023-03-06T11:20:50.431Z,100471.59
2023-03-06T11:23:22.856Z,100448.59
2023-03-06T11:25:58.895Z,100445.66
2023-03-06T11:28:32.429Z,100453.91
2023-03-06T11:31:08.299Z,100441.56
2023-03-06T11:33:41.124Z,100444.03
2023-03-06T11:36:16.489Z,100440.06
2023-03-06T11:38:50.505Z,100437.59
2023-03-06T11:41:32.932Z,100427.97
2023-03-06T11:44:09.874Z,100425.84
2023-03-06T11:46:41.636Z,100424.00
2023-03-06T11:49:20.405Z,100425.75
2023-03-06T11:51:53.421Z,100415.44
2023-03-06T11:54:22.065Z,100412.41
2023-03-06T11:56:58.979Z,100404.56
2023-03-06T12:00:01.231Z,100407.31
2023-03-06T12:03:03.204Z,100406.69
2023-03-06T12:05:39.291Z,100395.34
2023-03-06T12:08:25.581Z,100397.47
2023-03-06T12:10:59.176Z,100395.28
2023-03-06T12:14:03.929Z,100388.09
2023-03-06T12:17:02.891Z,100388.88
2023-03-06T12:19:57.193Z,100378.59
2023-03-06T12:22:42.176Z,100384.34
2023-03-06T12:25:33.700Z,100373.09
2023-03-06T12:28:16.395Z,100363.59
2023-03-06T12:31:09.246Z,100356.34
2023-03-06T12:33:45.680Z,100361.84
2023-03-06T12:36:34.276Z,100344.84
2023-03-06T12:39:10.426Z,100346.13
2023-03-06T12:41:53.664Z,100338.16
2023-03-06T12:44:44.941Z,100342.81
2023-03-06T12:47:18.472Z,100328.59
2023-03-06T12:49:54.312Z,100337.31
2023-03-06T12:52:30.280Z,100334.44
2023-03-06T12:55:00.770Z,100327.75
2023-03-06T12:57:29.301Z,100327.38
2023-03-06T12:59:57.749Z,100335.53
2023-03-06T13:02:47.309Z,100320.78
2023-03-06T13:05:34.544Z,100314.44
2023-03-06T13:08:19.110Z,100319.78
2023-03-06T13:11:10.813Z,100305.47
2023-03-06T13:13:45.447Z,100312.41
2023-03-06T13:16:22.785Z,100313.66
2023-03-06T13:18:56.576Z,100302.88
2023-03-06T13:22:10.352Z,100295.38
2023-03-06T13:24:39.868Z,100300.19
2023-03-06T13:27:10.166Z,100296.41
2023-03-06T13:30:22.375Z,100300.56
2023-03-06T13:32:52.760Z,100303.41
2023-03-06T13:35:54.886Z,100303.47
2023-03-06T13:38:33.212Z,100305.56
2023-03-06T13:41:42.762Z,100303.72
2023-03-06T13:44:47.320Z,100308.00
2023-03-06T13:50:43.836Z,100302.47
2023-03-06T13:54:05.313Z,100294.22
2023-03-06T13:56:57.041Z,100283.22
2023-03-06T13:59:48.991Z,100289.97
2023-03-06T14:02:38.109Z,100290.16
2023-03-06T14:05:13.150Z,100286.13
2023-03-06T14:07:43.920Z,100292.13
2023-03-06T14:10:24.527Z,100296.03
2023-03-06T14:13:03.896Z,100291.69
2023-03-06T14:15:38.489Z,100299.94
2023-03-06T14:18:13.653Z,100286.06
2023-03-06T14:20:43.367Z,100287.56
2023-03-06T14:23:25.104Z,100287.91
2023-03-06T14:25:59.372Z,100273.34
2023-03-06T14:28:30.655Z,100275.59
2023-03-06T14:31:00.759Z,100271.13
2023-03-06T14:33:32.594Z,100266.56
2023-03-06T14:36:03.112Z,100275.75
2023-03-06T14:38:35.606Z,100275.84
2023-03-06T14:41:04.354Z,100275.91
2023-03-06T14:43:33.629Z,100285.28
2023-03-06T14:46:02.642Z,100287.72
2023-03-06T14:48:40.337Z,100272.09
2023-03-06T14:51:14.710Z,100284.56
2023-03-06T14:53:44.742Z,100284.44
2023-03-06T14:56:18.449Z,100275.47
2023-03-06T14:58:55.188Z,100272.38
2023-03-06T15:01:28.861Z,100275.38
2023-03-06T15:04:00.741Z,100279.22
2023-03-06T15:06:34.605Z,100282.75
2023-03-06T15:09:07.820Z,100286.25
2023-03-06T15:11:56.381Z,100280.88
2023-03-06T15:14:32.900Z,100271.94
2023-03-06T15:17:21.937Z,100279.06
2023-03-06T15:19:51.448Z,100269.75
2023-03-06T15:22:30.005Z,100275.09
2023-03-06T15:25:26.663Z,100264.06
2023-03-06T15:27:56.893Z,100268.88
2023-03-06T15:30:29.971Z,100267.47
2023-03-06T15:33:24.793Z,100258.69
2023-03-06T15:35:56.953Z,100250.78
2023-03-06T15:38:31.117Z,100256.16
2023-03-06T15:41:00.820Z,100250.78
2023-03-06T15:43:37.850Z,100244.28
2023-03-06T15:46:08.591Z,100254.34
2023-03-06T15:48:36.532Z,100240.59
2023-03-06T15:51:05.699Z,100252.75
2023-03-06T15:53:33.626Z,100249.41
2023-03-06T15:56:02.615Z,100249.28
2023-03-06T15:58:34.586Z,100239.66
2023-03-06T16:01:03.720Z,100247.16
2023-03-06T16:03:33.616Z,100243.13
2023-03-06T16:06:04.564Z,100239.81
2023-03-06T16:08:32.459Z,100234.47
2023-03-06T16:11:00.395Z,100235.44
2023-03-06T16:13:29.864Z,100228.63
2023-03-06T16:15:57.794Z,100227.84
2023-03-06T16:18:25.794Z,100227.53
2023-03-06T16:20:55.155Z,100227.22
2023-03-06T16:23:23.097Z,100232.81
2023-03-06T16:25:51.067Z,100232.88
2023-03-06T16:28:18.919Z,100250.31
2023-03-06T16:30:47.068Z,100248.75
2023-03-06T16:33:15.405Z,100254.22
2023-03-06T16:35:46.456Z,100254.53
2023-03-06T16:38:16.713Z,100254.22
2023-03-06T16:40:44.652Z,100263.41
2023-03-06T16:43:13.556Z,100264.97
2023-03-06T16:45:42.827Z,100261.16
2023-03-06T16:48:15.895Z,100256.22
2023-03-06T16:50:44.080Z,100259.34
2023-03-06T16:53:11.937Z,100260.56
2023-03-06T16:55:41.244Z,100256.97
2023-03-06T16:58:09.945Z,100261.72
2023-03-06T17:00:38.177Z,100271.00
2023-03-06T17:03:06.152Z,100275.25
2023-03-06T17:05:35.058Z,100275.31
2023-03-06T17:08:03.672Z,100278.88
2023-03-06T17:10:31.906Z,100279.88
2023-03-06T17:13:01.532Z,100274.19
2023-03-06T17:15:29.533Z,100278.94
2023-03-06T17:17:57.854Z,100277.94
2023-03-06T17:20:25.800Z,100275.56
2023-03-06T17:22:53.985Z,100282.94
2023-03-06T17:25:21.902Z,100269.53
2023-03-06T17:27:49.764Z,100270.91
2023-03-06T17:30:20.278Z,100260.56
2023-03-06T17:32:48.238Z,100259.84
2023-03-06T17:35:16.210Z,100257.84
2023-03-06T17:37:44.236Z,100259.63
2023-03-06T17:40:13.528Z,100256.44
2023-03-06T17:42:41.339Z,100252.31
2023-03-06T17:45:11.087Z,100249.81
2023-03-06T17:47:40.428Z,100250.22
2023-03-06T17:50:08.893Z,100242.56
2023-03-06T17:52:37.375Z,100240.78
2023-03-06T17:55:06.061Z,100237.94
2023-03-06T17:57:33.907Z,100239.91
2023-03-06T18:00:01.796Z,100243.94
2023-03-06T18:02:41.332Z,100250.16
2023-03-06T18:05:10.478Z,100240.75
2023-03-06T18:07:39.145Z,100242.91
2023-03-06T18:10:07.856Z,100246.88
2023-03-06T18:12:35.843Z,100242.31
2023-03-06T18:15:03.731Z,100241.31
2023-03-06T18:17:31.699Z,100243.31
2023-03-06T18:20:01.025Z,100251.00
2023-03-06T18:22:28.845Z,100250.00
2023-03-06T18:24:56.657Z,100247.38
2023-03-06T18:27:24.590Z,100240.06
2023-03-06T18:29:52.951Z,100241.44
2023-03-06T18:32:20.937Z,100223.25
2023-03-06T18:34:50.635Z,100227.16
2023-03-06T18:37:19.960Z,100226.34
2023-03-06T18:39:47.921Z,100223.81
2023-03-06T18:42:15.770Z,100216.16
2023-03-06T18:44:44.093Z,100204.88
2023-03-06T18:47:11.861Z,100198.66
2023-03-06T18:49:42.037Z,100195.16
2023-03-06T18:52:11.847Z,100200.13
2023-03-06T18:54:41.217Z,100197.56
2023-03-06T18:57:11.198Z,100197.66
2023-03-06T18:59:39.293Z,100192.69
2023-03-06T19:02:07.821Z,100191.00
2023-03-06T19:04:37.908Z,100185.09
2023-03-06T19:07:06.405Z,100172.44
2023-03-06T19:09:34.486Z,100168.63
2023-03-06T19:12:04.248Z,100163.09
2023-03-06T19:14:32.119Z,100154.38
2023-03-06T19:16:59.906Z,100151.31
2023-03-06T19:19:29.231Z,100149.91
2023-03-06T19:21:59.549Z,100150.91
2023-03-06T19:24:27.507Z,100138.41
2023-03-06T19:26:55.511Z,100135.81
2023-03-06T19:29:25.020Z,100119.09
2023-03-06T19:31:53.036Z,100133.06
2023-03-06T19:34:21.010Z,100129.38
2023-03-06T19:36:50.940Z,100131.16
2023-03-06T19:39:18.691Z,100124.84
2023-03-06T19:41:47.355Z,100112.16
2023-03-06T19:44:16.312Z,100114.34
2023-03-06T19:46:45.818Z,100105.16
2023-03-06T19:49:17.956Z,100111.66
2023-03-06T19:51:45.980Z,100095.34
2023-03-06T19:54:14.972Z,100098.34
2023-03-06T19:56:43.054Z,100092.50
2023-03-06T19:59:11.139Z,100088.53
2023-03-06T20:01:40.472Z,100081.09
2023-03-06T20:04:10.025Z,100084.16
2023-03-06T20:06:38.846Z,100072.94
2023-03-06T20:09:08.912Z,100064.66
2023-03-06T20:11:36.745Z,100059.34
2023-03-06T20:14:06.962Z,100051.72
2023-03-06T20:16:35.634Z,100044.75
2023-03-06T20:19:03.951Z,100047.28
2023-03-06T20:21:37.556Z,100031.91
2023-03-06T20:24:06.904Z,100033.34
2023-03-06T20:26:36.751Z,100028.88
2023-03-06T20:29:05.132Z,100029.66
2023-03-06T20:31:33.059Z,100019.41
2023-03-06T20:34:01.309Z,100017.09
2023-03-06T20:36:32.408Z,100010.97
2023-03-06T20:39:03.642Z,100016.00
2023-03-06T20:41:32.479Z,100018.81
2023-03-06T20:44:02.525Z,100022.13
2023-03-06T20:46:31.210Z,100006.88
2023-03-06T20:48:59.595Z,100001.81
2023-03-06T20:51:30.198Z,100000.38
2023-03-06T20:53:58.926Z,100007.44
2023-03-06T20:56:30.679Z,100005.00
2023-03-06T20:58:59.064Z,100018.63
2023-03-06T21:01:28.794Z,100008.88
2023-03-06T21:03:57.876Z,100001.75
2023-03-06T21:06:27.068Z,99997.50
2023-03-06T21:08:55.067Z,99992.19
2023-03-06T21:11:22.968Z,99996.69
2023-03-06T21:13:53.233Z,99988.59
2023-03-06T21:16:23.729Z,99986.69
2023-03-06T21:18:52.211Z,99982.53
2023-03-06T21:21:23.007Z,99976.69
2023-03-06T21:23:51.184Z,99973.13
2023-03-06T21:26:20.858Z,99976.03
2023-03-06T21:28:49.193Z,99968.38
2023-03-06T21:31:21.265Z,99974.59
2023-03-06T21:33:50.993Z,99980.59
2023-03-06T21:36:21.332Z,99975.38
2023-03-06T21:38:50.448Z,99983.84
2023-03-06T21:41:20.013Z,99969.38
2023-03-06T21:43:48.150Z,99968.09
2023-03-06T21:46:16.083Z,99975.31
2023-03-06T21:48:45.434Z,99980.00
2023-03-06T21:51:15.906Z,99980.06
2023-03-06T21:53:45.228Z,99977.97
2023-03-06T21:56:14.666Z,99991.59
2023-03-06T21:58:42.996Z,99984.25
2023-03-06T22:01:11.428Z,99980.69
2023-03-06T22:03:40.259Z,99987.66
2023-03-06T22:06:11.603Z,99983.34
2023-03-06T22:08:39.603Z,99979.88
2023-03-06T22:11:08.857Z,99988.41
2023-03-06T22:13:36.951Z,99989.09
2023-03-06T22:16:06.321Z,99981.34
2023-03-06T22:18:34.857Z,99985.34
2023-03-06T22:21:07.763Z,99991.59
2023-03-06T22:23:37.604Z,99990.41
2023-03-06T22:26:07.033Z,99995.13
2023-03-06T22:28:35.132Z,99998.59
2023-03-06T22:31:06.643Z,99988.53
2023-03-06T22:33:34.708Z,99992.00
2023-03-06T22:36:06.120Z,99994.88
2023-03-06T22:38:35.011Z,99992.16
2023-03-06T22:41:04.969Z,99995.34
2023-03-06T22:43:33.732Z,99992.03
2023-03-06T22:46:03.056Z,99982.13
2023-03-06T22:48:31.106Z,99977.16
2023-03-06T22:51:03.489Z,99982.78
2023-03-06T22:53:32.615Z,99977.84
2023-03-06T22:56:01.152Z,99970.94
2023-03-06T22:58:34.486Z,99967.50
2023-03-06T23:01:06.183Z,99977.84
2023-03-06T23:03:34.114Z,99969.03
2023-03-06T23:06:01.906Z,99965.06
2023-03-06T23:08:29.717Z,99967.50
2023-03-06T23:10:57.671Z,99960.16
2023-03-06T23:13:45.873Z,99955.41
2023-03-06T23:16:32.977Z,99956.53
2023-03-06T23:19:19.683Z,99948.75
2023-03-06T23:22:06.441Z,99946.72
2023-03-06T23:24:53.157Z,99960.38
2023-03-06T23:27:21.534Z,99963.84
2023-03-06T23:29:55.224Z,99956.69
2023-03-06T23:32:26.224Z,99965.06
2023-03-06T23:34:54.028Z,99959.44
2023-03-06T23:37:21.962Z,99975.88
2023-03-06T23:39:49.823Z,99967.09
2023-03-06T23:42:17.711Z,99981.97
2023-03-06T23:44:45.616Z,99984.84
2023-03-06T23:47:17.429Z,99975.47
2023-03-06T23:49:45.148Z,99987.38
2023-03-06T23:52:12.955Z,99975.31
2023-03-06T23:54:40.806Z,99990.69
2023-03-06T23:57:09.385Z,99990.31
2023-03-06T23:59:37.285Z,99997.47
